createdAt,value
2022-12-08T00:00:06.768Z,68.1429
2022-12-08T00:01:06.784Z,68.2143
2022-12-08T00:02:07.004Z,68.2143
2022-12-08T00:03:07.036Z,68.1429
2022-12-08T00:04:06.898Z,68.1429
2022-12-08T00:05:07.029Z,68.1429
2022-12-08T00:06:06.958Z,68.1429
2022-12-08T00:07:06.986Z,68.1429
2022-12-08T00:08:07.060Z,68.1429
2022-12-08T00:09:07.036Z,68.1429
2022-12-08T00:10:25.132Z,68.1429
2022-12-08T00:11:07.097Z,68.1429
2022-12-08T00:12:07.143Z,68.2143
2022-12-08T00:13:07.158Z,68.2143
2022-12-08T00:14:07.190Z,68.2857
2022-12-08T00:15:07.232Z,68.3571
2022-12-08T00:16:07.359Z,68.4286
2022-12-08T00:17:07.377Z,68.4286
2022-12-08T00:18:07.315Z,68.5
2022-12-08T00:19:07.357Z,68.5
2022-12-08T00:20:07.375Z,68.5714
2022-12-08T00:21:07.412Z,68.6429
2022-12-08T00:22:07.450Z,68.6429
2022-12-08T00:23:07.506Z,68.6429
2022-12-08T00:24:07.508Z,68.6429
2022-12-08T00:25:07.546Z,68.6429
2022-12-08T00:26:07.580Z,68.6429
2022-12-08T00:27:07.623Z,68.6429
2022-12-08T00:28:07.665Z,68.6429
2022-12-08T00:29:07.693Z,68.5714
2022-12-08T00:30:07.730Z,68.6429
2022-12-08T00:31:07.761Z,68.6429
2022-12-08T00:32:07.883Z,68.6429
2022-12-08T00:33:07.828Z,68.6429
2022-12-08T00:34:07.854Z,68.6429
2022-12-08T00:35:07.882Z,68.5714
2022-12-08T00:36:07.921Z,68.5714
2022-12-08T00:37:07.960Z,68.5714
2022-12-08T00:38:07.988Z,68.5714
2022-12-08T00:39:08.014Z,68.5714
2022-12-08T00:40:08.055Z,68.5714
2022-12-08T00:41:08.097Z,68.5714
2022-12-08T00:42:08.154Z,68.5714
2022-12-08T00:43:08.143Z,68.5714
2022-12-08T00:44:08.167Z,68.5
2022-12-08T00:45:08.207Z,68.5
2022-12-08T00:46:08.365Z,68.4286
2022-12-08T00:47:08.282Z,68.4286
2022-12-08T00:48:08.306Z,68.3571
2022-12-08T00:49:08.339Z,68.3571
2022-12-08T00:50:08.371Z,68.2857
2022-12-08T00:51:08.430Z,68.3571
2022-12-08T00:52:08.437Z,68.2857
2022-12-08T00:53:08.466Z,68.2857
2022-12-08T00:54:08.491Z,68.2143
2022-12-08T00:55:08.517Z,68.2143
2022-12-08T00:56:08.566Z,68.1429
2022-12-08T00:57:08.587Z,68.1429
2022-12-08T00:58:08.609Z,68.0714
2022-12-08T00:59:08.638Z,68
2022-12-08T01:00:08.665Z,68
2022-12-08T01:01:08.730Z,67.9286
2022-12-08T01:02:08.740Z,67.9286
2022-12-08T01:03:08.817Z,68
2022-12-08T01:04:08.790Z,67.9286
2022-12-08T01:05:08.824Z,67.9286
2022-12-08T01:06:08.838Z,67.9286
2022-12-08T01:07:08.870Z,68
2022-12-08T01:08:09.114Z,68
2022-12-08T01:09:08.910Z,68
2022-12-08T01:10:08.933Z,68
2022-12-08T01:11:08.972Z,68
2022-12-08T01:12:09.025Z,68
2022-12-08T01:13:09.045Z,68
2022-12-08T01:14:09.070Z,68
2022-12-08T01:15:09.100Z,68
2022-12-08T01:16:09.216Z,68
2022-12-08T01:17:09.265Z,68.0714
2022-12-08T01:18:09.187Z,68.0714
2022-12-08T01:19:09.417Z,68.0714
2022-12-08T01:20:09.251Z,68.0714
2022-12-08T01:21:09.267Z,68.0714
2022-12-08T01:22:09.303Z,68.0714
2022-12-08T01:23:09.348Z,68.0714
2022-12-08T01:24:09.373Z,68.1429
2022-12-08T01:25:09.411Z,68.1429
2022-12-08T01:26:09.428Z,68.2143
2022-12-08T01:27:09.461Z,68.2143
2022-12-08T01:28:09.487Z,68.2857
2022-12-08T01:29:09.512Z,68.2857
2022-12-08T01:30:09.535Z,68.3571
2022-12-08T01:31:09.596Z,68.4286
2022-12-08T01:32:09.618Z,68.5
2022-12-08T01:33:09.628Z,68.5
2022-12-08T01:34:09.658Z,68.5
2022-12-08T01:35:09.690Z,68.5714
2022-12-08T01:36:09.733Z,68.5714
2022-12-08T01:37:09.759Z,68.5714
2022-12-08T01:38:09.796Z,68.6429
2022-12-08T01:39:09.841Z,68.6429
2022-12-08T01:40:09.857Z,68.7143
2022-12-08T01:41:09.920Z,68.7143
2022-12-08T01:42:09.927Z,68.7857
2022-12-08T01:43:09.958Z,68.7857
2022-12-08T01:44:09.994Z,68.7857
2022-12-08T01:45:10.022Z,68.8571
2022-12-08T01:46:10.161Z,68.8571
2022-12-08T01:47:10.112Z,68.9286
2022-12-08T01:48:10.251Z,68.9286
2022-12-08T01:49:10.151Z,68.9286
2022-12-08T01:50:10.187Z,68.9286
2022-12-08T01:51:10.215Z,68.9286
2022-12-08T01:52:10.264Z,68.9286
2022-12-08T01:53:10.293Z,68.9286
2022-12-08T01:54:10.303Z,68.9286
2022-12-08T01:55:10.344Z,68.9286
2022-12-08T01:56:10.373Z,68.9286
2022-12-08T01:57:10.404Z,69
2022-12-08T01:58:10.444Z,69.0714
2022-12-08T01:59:10.467Z,69.1429
2022-12-08T02:00:10.499Z,69.2143
2022-12-08T02:01:10.599Z,69.2143
2022-12-08T02:02:10.659Z,69.2857
2022-12-08T02:03:10.600Z,69.2857
2022-12-08T02:04:10.631Z,69.2857
2022-12-08T02:05:10.658Z,69.3571
2022-12-08T02:06:10.689Z,69.3571
2022-12-08T02:07:10.730Z,69.4286
2022-12-08T02:08:10.795Z,69.5
2022-12-08T02:09:10.781Z,69.5
2022-12-08T02:10:10.817Z,69.5714
2022-12-08T02:11:10.880Z,69.5714
2022-12-08T02:12:10.893Z,69.5714
2022-12-08T02:13:10.926Z,69.5714
2022-12-08T02:14:10.953Z,69.5714
2022-12-08T02:15:10.992Z,69.5714
2022-12-08T02:16:11.083Z,69.5714
2022-12-08T02:17:11.076Z,69.5714
2022-12-08T02:18:11.097Z,69.6429
2022-12-08T02:20:11.153Z,69.6429
2022-12-08T02:21:11.187Z,69.6429
2022-12-08T02:22:11.258Z,69.6429
2022-12-08T02:23:11.248Z,69.7143
2022-12-08T02:24:11.280Z,69.7143
2022-12-08T02:25:11.313Z,69.7143
2022-12-08T02:26:11.340Z,69.7143
2022-12-08T02:27:11.392Z,69.7143
2022-12-08T02:28:11.412Z,69.7143
2022-12-08T02:29:11.435Z,69.7143
2022-12-08T02:30:11.487Z,69.7143
2022-12-08T02:31:11.597Z,69.7143
2022-12-08T02:32:11.552Z,69.7857
2022-12-08T02:33:11.620Z,69.7857
2022-12-08T02:34:11.622Z,69.8571
2022-12-08T02:35:11.650Z,69.8571
2022-12-08T02:36:11.691Z,69.8571
2022-12-08T02:37:11.716Z,69.9286
2022-12-08T02:38:11.765Z,69.9286
2022-12-08T02:39:11.795Z,69.9286
2022-12-08T02:40:11.825Z,69.9286
2022-12-08T02:41:11.853Z,69.9286
2022-12-08T02:42:11.876Z,69.9286
2022-12-08T02:43:11.916Z,69.9286
2022-12-08T02:44:11.950Z,69.9286
2022-12-08T02:45:11.980Z,69.9286
2022-12-08T02:46:12.066Z,69.9286
2022-12-08T02:47:12.046Z,69.9286
2022-12-08T02:48:12.076Z,70
2022-12-08T02:49:12.118Z,70
2022-12-08T02:50:12.147Z,70
2022-12-08T02:51:12.218Z,70
2022-12-08T02:52:12.204Z,70
2022-12-08T02:54:12.272Z,70
2022-12-08T02:55:12.303Z,70
2022-12-08T02:56:12.344Z,70
2022-12-08T02:57:12.382Z,70
2022-12-08T02:58:12.390Z,70
2022-12-08T02:59:12.439Z,69.9286
2022-12-08T03:00:12.452Z,69.9286
2022-12-08T03:01:12.543Z,69.9286
2022-12-08T03:02:12.657Z,69.9286
2022-12-08T03:03:12.563Z,69.9286
2022-12-08T03:04:12.594Z,69.9286
2022-12-08T03:05:12.635Z,69.9286
2022-12-08T03:06:12.678Z,69.9286
2022-12-08T03:07:12.711Z,70
2022-12-08T03:08:12.807Z,69.9286
2022-12-08T03:09:12.764Z,70
2022-12-08T03:10:12.802Z,70
2022-12-08T03:11:12.833Z,70
2022-12-08T03:12:12.871Z,70
2022-12-08T03:13:12.910Z,70
2022-12-08T03:14:12.942Z,70
2022-12-08T03:15:12.973Z,70
2022-12-08T03:16:13.127Z,70
2022-12-08T03:17:13.040Z,70
2022-12-08T03:18:13.086Z,70
2022-12-08T03:19:13.111Z,70
2022-12-08T03:20:13.137Z,70
2022-12-08T03:21:13.172Z,70
2022-12-08T03:22:13.201Z,69.9286
2022-12-08T03:23:13.289Z,69.9286
2022-12-08T03:24:13.263Z,70
2022-12-08T03:25:13.293Z,70
2022-12-08T03:26:13.332Z,70
2022-12-08T03:27:13.360Z,70
2022-12-08T03:28:13.409Z,70
2022-12-08T03:29:13.424Z,70
2022-12-08T03:30:13.461Z,70
2022-12-08T03:31:13.561Z,70
2022-12-08T03:32:13.527Z,70
2022-12-08T03:33:13.565Z,70
2022-12-08T03:34:13.606Z,70
2022-12-08T03:35:13.648Z,70
2022-12-08T03:36:13.668Z,70
2022-12-08T03:37:13.707Z,70
2022-12-08T03:38:13.740Z,70
2022-12-08T03:39:13.774Z,70.0714
2022-12-08T03:40:13.818Z,70.0714
2022-12-08T03:41:13.873Z,70
2022-12-08T03:42:13.882Z,70
2022-12-08T03:43:13.915Z,70
2022-12-08T03:44:13.959Z,70
2022-12-08T03:45:13.990Z,70
2022-12-08T03:46:14.132Z,70
2022-12-08T03:47:14.083Z,70
2022-12-08T03:48:14.099Z,70
2022-12-08T03:49:14.147Z,70
2022-12-08T03:50:14.177Z,70
2022-12-08T03:51:14.217Z,70
2022-12-08T03:52:14.270Z,70
2022-12-08T03:53:14.284Z,70
2022-12-08T03:54:14.319Z,70
2022-12-08T03:55:14.350Z,69.9286
2022-12-08T03:56:14.371Z,70
2022-12-08T03:57:14.416Z,70
2022-12-08T03:58:14.446Z,70
2022-12-08T03:59:14.467Z,70
2022-12-08T04:00:14.495Z,70
2022-12-08T04:01:14.538Z,70
2022-12-08T04:02:14.668Z,70
2022-12-08T04:03:14.719Z,70
2022-12-08T04:04:14.619Z,69.9286
2022-12-08T04:05:14.646Z,69.9286
2022-12-08T04:06:14.678Z,69.9286
2022-12-08T04:07:14.718Z,69.8571
2022-12-08T04:08:14.813Z,69.7857
2022-12-08T04:09:14.774Z,69.7143
2022-12-08T04:10:14.807Z,69.7143
2022-12-08T04:11:14.831Z,69.7143
2022-12-08T04:12:14.864Z,69.6429
2022-12-08T04:13:14.918Z,69.6429
2022-12-08T04:14:14.930Z,69.6429
2022-12-08T04:15:14.965Z,69.5714
2022-12-08T04:16:15.141Z,69.5714
2022-12-08T04:17:15.026Z,69.5714
2022-12-08T04:18:15.060Z,69.5714
2022-12-08T04:19:15.098Z,69.5714
2022-12-08T04:20:15.137Z,69.6429
2022-12-08T04:21:15.167Z,69.6429
2022-12-08T04:22:15.198Z,69.6429
2022-12-08T04:23:15.234Z,69.6429
2022-12-08T04:24:15.274Z,69.7143
2022-12-08T04:25:15.304Z,69.7143
2022-12-08T04:26:15.332Z,69.7143
2022-12-08T04:27:15.364Z,69.6429
2022-12-08T04:28:15.393Z,69.7143
2022-12-08T04:29:15.431Z,69.7143
2022-12-08T04:30:15.465Z,69.7143
2022-12-08T04:31:15.696Z,69.7143
2022-12-08T04:32:15.528Z,69.7857
2022-12-08T04:33:15.565Z,69.7857
2022-12-08T04:34:15.594Z,69.8571
2022-12-08T04:35:15.617Z,69.8571
2022-12-08T04:36:15.657Z,69.9286
2022-12-08T04:37:15.686Z,70
2022-12-08T04:38:15.714Z,70
2022-12-08T04:39:15.744Z,70
2022-12-08T04:40:15.772Z,70
2022-12-08T04:41:15.797Z,70.0714
2022-12-08T04:42:15.868Z,70.0714
2022-12-08T04:43:15.848Z,70.0714
2022-12-08T04:44:15.877Z,70.0714
2022-12-08T04:45:15.914Z,70.0714
2022-12-08T04:46:16.017Z,70.0714
2022-12-08T04:47:16.053Z,70.0714
2022-12-08T04:48:16.024Z,70.1429
2022-12-08T04:49:16.046Z,70.0714
2022-12-08T04:50:16.083Z,70.0714
2022-12-08T04:51:16.113Z,70.0714
2022-12-08T04:52:16.129Z,70.0714
2022-12-08T04:53:16.203Z,70
2022-12-08T04:54:16.207Z,70.0714
2022-12-08T04:55:16.237Z,70
2022-12-08T04:56:16.254Z,70
2022-12-08T04:57:16.285Z,70.0714
2022-12-08T04:58:16.329Z,70.0714
2022-12-08T04:59:16.354Z,70.0714
2022-12-08T05:00:16.383Z,70.0714
2022-12-08T05:01:16.549Z,70.0714
2022-12-08T05:02:16.651Z,70.0714
2022-12-08T05:03:16.492Z,70
2022-12-08T05:04:16.521Z,70
2022-12-08T05:05:16.545Z,70
2022-12-08T05:06:16.578Z,70
2022-12-08T05:07:16.627Z,69.9286
2022-12-08T05:08:16.711Z,69.9286
2022-12-08T05:09:16.672Z,69.8571
2022-12-08T05:10:16.706Z,69.8571
2022-12-08T05:11:16.744Z,69.7857
2022-12-08T05:12:16.796Z,69.7857
2022-12-08T05:13:16.813Z,69.7857
2022-12-08T05:14:16.841Z,69.7143
2022-12-08T05:15:16.879Z,69.7143
2022-12-08T05:16:16.976Z,69.7143
2022-12-08T05:17:16.955Z,69.7143
2022-12-08T05:18:16.977Z,69.7143
2022-12-08T05:19:17.017Z,69.7143
2022-12-08T05:20:17.045Z,69.7143
2022-12-08T05:21:17.071Z,69.6429
2022-12-08T05:22:17.092Z,69.6429
2022-12-08T05:23:17.135Z,69.6429
2022-12-08T05:24:17.154Z,69.5714
2022-12-08T05:25:17.212Z,69.5714
2022-12-08T05:26:17.232Z,69.5714
2022-12-08T05:27:17.257Z,69.5714
2022-12-08T05:28:40.661Z,69.5714
2022-12-08T05:29:17.323Z,69.5714
2022-12-08T05:30:17.359Z,69.5714
2022-12-08T05:31:17.421Z,69.5
2022-12-08T05:32:17.409Z,69.5714
2022-12-08T05:33:17.430Z,69.5
2022-12-08T05:34:17.461Z,69.5
2022-12-08T05:35:17.506Z,69.5
2022-12-08T05:36:17.523Z,69.5
2022-12-08T05:37:17.564Z,69.5
2022-12-08T05:38:17.601Z,69.5
2022-12-08T05:39:17.634Z,69.4286
2022-12-08T05:40:17.679Z,69.3571
2022-12-08T05:41:17.693Z,69.3571
2022-12-08T05:42:23.144Z,69.2857
2022-12-08T05:43:17.749Z,69.2857
2022-12-08T05:44:17.785Z,69.2857
2022-12-08T05:45:17.833Z,69.2857
2022-12-08T05:46:17.913Z,69.2857
2022-12-08T05:47:17.870Z,69.2857
2022-12-08T05:48:17.916Z,69.2857
2022-12-08T05:49:17.936Z,69.3571
2022-12-08T05:50:17.968Z,69.3571
2022-12-08T05:51:18.016Z,69.3571
2022-12-08T05:52:18.045Z,69.3571
2022-12-08T05:53:18.087Z,69.3571
2022-12-08T05:54:18.110Z,69.3571
2022-12-08T05:55:18.156Z,69.3571
2022-12-08T05:56:18.198Z,69.4286
2022-12-08T05:57:18.214Z,69.4286
2022-12-08T05:58:18.236Z,69.5
2022-12-08T05:59:18.266Z,69.5
2022-12-08T06:00:18.299Z,69.5714
2022-12-08T06:01:18.347Z,69.5714
2022-12-08T06:02:18.612Z,69.5714
2022-12-08T06:03:18.484Z,69.6429
2022-12-08T06:04:18.424Z,69.6429
2022-12-08T06:05:18.455Z,69.6429
2022-12-08T06:06:18.534Z,69.7143
2022-12-08T06:07:18.536Z,69.7143
2022-12-08T06:08:18.661Z,69.7857
2022-12-08T06:09:18.601Z,69.7857
2022-12-08T06:10:18.634Z,69.7857
2022-12-08T06:11:18.680Z,69.7857
2022-12-08T06:12:18.700Z,69.7857
2022-12-08T06:13:18.737Z,69.8571
2022-12-08T06:14:18.762Z,69.8571
2022-12-08T06:15:18.797Z,69.9286
2022-12-08T06:16:18.943Z,69.9286
2022-12-08T06:17:18.867Z,70
2022-12-08T06:18:18.903Z,70
2022-12-08T06:19:18.928Z,70.0714
2022-12-08T06:20:18.977Z,70.1429
2022-12-08T06:21:18.999Z,70.1429
2022-12-08T06:22:19.033Z,70.1429
2022-12-08T06:23:19.078Z,70.2143
2022-12-08T06:24:19.111Z,70.2143
2022-12-08T06:25:19.143Z,70.2143
2022-12-08T06:26:19.172Z,70.2857
2022-12-08T06:27:19.207Z,70.2857
2022-12-08T06:28:19.239Z,70.3571
2022-12-08T06:29:19.276Z,70.3571
2022-12-08T06:30:19.315Z,70.3571
2022-12-08T06:31:19.423Z,70.3571
2022-12-08T06:32:22.983Z,70.4286
2022-12-08T06:33:19.422Z,70.4286
2022-12-08T06:34:19.446Z,70.5
2022-12-08T06:35:19.491Z,70.4286
2022-12-08T06:36:19.512Z,70.5
2022-12-08T06:37:19.553Z,70.5
2022-12-08T06:38:19.576Z,70.5714
2022-12-08T06:39:19.609Z,70.5714
2022-12-08T06:40:19.637Z,70.5714
2022-12-08T06:41:19.679Z,70.5714
2022-12-08T06:42:19.726Z,70.5714
2022-12-08T06:43:19.736Z,70.6429
2022-12-08T06:44:19.762Z,70.5714
2022-12-08T06:45:19.795Z,70.5714
2022-12-08T06:46:19.911Z,70.5
2022-12-08T06:47:24.666Z,70.5
2022-12-08T06:48:19.887Z,70.5
2022-12-08T06:49:19.914Z,70.5
2022-12-08T06:50:19.941Z,70.4286
2022-12-08T06:51:19.967Z,70.4286
2022-12-08T06:52:20.003Z,70.4286
2022-12-08T06:53:20.039Z,70.4286
2022-12-08T06:54:20.069Z,70.3571
2022-12-08T06:55:42.417Z,70.3571
2022-12-08T06:56:20.262Z,70.3571
2022-12-08T06:57:20.164Z,70.3571
2022-12-08T06:58:20.214Z,70.3571
2022-12-08T06:59:20.228Z,70.3571
2022-12-08T07:00:20.261Z,70.3571
2022-12-08T07:01:20.353Z,70.2857
2022-12-08T07:02:20.356Z,70.2857
2022-12-08T07:03:20.359Z,70.2857
2022-12-08T07:04:20.369Z,70.2143
2022-12-08T07:05:20.399Z,70.2143
2022-12-08T07:06:20.427Z,70.2143
2022-12-08T07:07:20.457Z,70.2143
2022-12-08T07:08:20.584Z,70.2143
2022-12-08T07:09:20.518Z,70.1429
2022-12-08T07:10:20.554Z,70.1429
2022-12-08T07:11:22.420Z,70.0714
2022-12-08T07:12:20.616Z,70
2022-12-08T07:13:20.674Z,70
2022-12-08T07:14:20.671Z,70
2022-12-08T07:15:20.704Z,70
2022-12-08T07:16:20.845Z,70
2022-12-08T07:17:20.765Z,70
2022-12-08T07:18:20.802Z,70
2022-12-08T07:19:20.814Z,70
2022-12-08T07:20:20.842Z,70
2022-12-08T07:21:20.883Z,69.9286
2022-12-08T07:22:20.922Z,69.8571
2022-12-08T07:23:20.937Z,69.8571
2022-12-08T07:24:20.979Z,69.8571
2022-12-08T07:25:21.017Z,69.8571
2022-12-08T07:26:21.042Z,69.8571
2022-12-08T07:27:21.061Z,69.8571
2022-12-08T07:28:21.096Z,69.8571
2022-12-08T07:29:26.057Z,69.8571
2022-12-08T07:30:21.173Z,69.8571
2022-12-08T07:31:21.324Z,69.7857
2022-12-08T07:32:21.225Z,69.7857
2022-12-08T07:33:21.244Z,69.7857
2022-12-08T07:34:21.274Z,69.7143
2022-12-08T07:35:22.954Z,69.7143
2022-12-08T07:36:21.351Z,69.7143
2022-12-08T07:37:21.361Z,69.6429
2022-12-08T07:38:21.392Z,69.6429
2022-12-08T07:39:21.453Z,69.7143
2022-12-08T07:40:21.459Z,69.7143
2022-12-08T07:41:23.349Z,69.7143
2022-12-08T07:42:21.531Z,69.7143
2022-12-08T07:43:21.553Z,69.7857
2022-12-08T07:44:21.583Z,69.7857
2022-12-08T07:45:24.591Z,69.7143
2022-12-08T07:46:21.721Z,69.7143
2022-12-08T07:47:21.677Z,69.6429
2022-12-08T07:48:21.691Z,69.6429
2022-12-08T07:49:21.718Z,69.5714
2022-12-08T07:50:21.759Z,69.5
2022-12-08T07:51:21.814Z,69.4286
2022-12-08T07:52:21.835Z,69.4286
2022-12-08T07:53:21.863Z,69.3571
2022-12-08T07:54:21.903Z,69.3571
2022-12-08T07:55:21.936Z,69.2857
2022-12-08T07:56:21.972Z,69.2143
2022-12-08T07:57:22.004Z,69.2143
2022-12-08T07:58:22.037Z,69.2143
2022-12-08T07:59:22.063Z,69.1429
2022-12-08T08:00:22.095Z,69.1429
2022-12-08T08:01:22.308Z,69.1429
2022-12-08T08:02:24.653Z,69.1429
2022-12-08T08:03:22.185Z,69.1429
2022-12-08T08:04:22.232Z,69.1429
2022-12-08T08:05:22.241Z,69.1429
2022-12-08T08:06:22.279Z,69.0714
2022-12-08T08:07:22.342Z,69.0714
2022-12-08T08:08:22.396Z,69
2022-12-08T08:09:22.376Z,69
2022-12-08T08:10:22.404Z,69
2022-12-08T08:11:22.432Z,69
2022-12-08T08:12:31.450Z,68.9286
2022-12-08T08:13:22.493Z,68.9286
2022-12-08T08:14:22.528Z,68.9286
2022-12-08T08:15:22.553Z,68.8571
2022-12-08T08:16:22.695Z,68.7857
2022-12-08T08:17:22.777Z,68.7857
2022-12-08T08:18:22.660Z,68.7857
2022-12-08T08:19:22.698Z,68.7857
2022-12-08T08:20:22.712Z,68.8571
2022-12-08T08:21:44.480Z,68.7857
2022-12-08T08:22:22.776Z,68.7857
2022-12-08T08:23:22.832Z,68.7857
2022-12-08T08:24:22.851Z,68.7857
2022-12-08T08:25:22.884Z,68.7857
2022-12-08T08:26:22.915Z,68.8571
2022-12-08T08:27:22.939Z,68.7857
2022-12-08T08:28:22.990Z,68.7857
2022-12-08T08:29:23.009Z,68.7857
2022-12-08T08:30:23.030Z,68.8571
2022-12-08T08:31:23.100Z,68.7857
2022-12-08T08:32:23.080Z,68.7857
2022-12-08T08:33:23.132Z,68.6429
2022-12-08T08:34:23.174Z,68.5714
2022-12-08T08:35:23.178Z,68.5
2022-12-08T08:36:23.221Z,68.4286
2022-12-08T08:37:23.312Z,68.3571
2022-12-08T08:38:23.285Z,68.2857
2022-12-08T08:39:23.344Z,68.2857
2022-12-08T08:40:23.368Z,68.2143
2022-12-08T08:41:23.383Z,68.0714
2022-12-08T08:42:23.440Z,68.1429
2022-12-08T08:43:23.457Z,68.1429
2022-12-08T08:44:23.500Z,68.0714
2022-12-08T08:45:23.520Z,68
2022-12-08T08:46:23.602Z,68.0714
2022-12-08T08:47:23.572Z,68.0714
2022-12-08T08:48:23.602Z,68.0714
2022-12-08T08:49:23.678Z,67.9286
2022-12-08T08:50:23.675Z,68
2022-12-08T08:51:23.707Z,68
2022-12-08T08:52:23.733Z,67.9286
2022-12-08T08:53:23.768Z,68
2022-12-08T08:54:23.816Z,68
2022-12-08T08:55:23.843Z,67.9286
2022-12-08T08:56:23.882Z,67.7857
2022-12-08T08:57:26.078Z,67.7143
2022-12-08T08:58:23.948Z,67.5714
2022-12-08T08:59:23.968Z,67.5714
2022-12-08T09:00:24.089Z,67.5
2022-12-08T09:01:24.080Z,67.5
2022-12-08T09:02:24.285Z,67.5
2022-12-08T09:03:24.101Z,67.4286
2022-12-08T09:04:24.179Z,67.3571
2022-12-08T09:05:24.175Z,67.3571
2022-12-08T09:06:24.242Z,67.3571
2022-12-08T09:07:24.220Z,67.3571
2022-12-08T09:08:24.320Z,67.2857
2022-12-08T09:09:24.276Z,67.2143
2022-12-08T09:10:24.367Z,67.1429
2022-12-08T09:11:24.337Z,67.0714
2022-12-08T09:12:24.360Z,67.1429
2022-12-08T09:13:24.389Z,67.0714
2022-12-08T09:14:24.422Z,67.0714
2022-12-08T09:15:24.463Z,67.0714
2022-12-08T09:16:24.614Z,67.1429
2022-12-08T09:17:24.516Z,67.1429
2022-12-08T09:18:24.550Z,67.1429
2022-12-08T09:19:24.581Z,67.2143
2022-12-08T09:20:24.815Z,67.1429
2022-12-08T09:21:24.639Z,67.0714
2022-12-08T09:22:24.685Z,67.0714
2022-12-08T09:23:24.701Z,67.0714
2022-12-08T09:24:24.745Z,67.1429
2022-12-08T09:25:24.800Z,67.1429
2022-12-08T09:26:24.808Z,67.2143
2022-12-08T09:27:24.835Z,67.1429
2022-12-08T09:28:24.873Z,67.1429
2022-12-08T09:29:24.890Z,67.0714
2022-12-08T09:30:24.921Z,67.0714
2022-12-08T09:31:25.068Z,67.0714
2022-12-08T09:32:24.973Z,67.0714
2022-12-08T09:33:25.011Z,67
2022-12-08T09:34:25.036Z,67.1429
2022-12-08T09:35:25.068Z,67.1429
2022-12-08T09:36:25.114Z,67.2143
2022-12-08T09:37:25.154Z,67.2143
2022-12-08T09:38:25.157Z,67.1429
2022-12-08T09:39:25.190Z,67.2857
2022-12-08T09:40:25.227Z,67.2857
2022-12-08T09:41:28.247Z,67.2143
2022-12-08T09:42:25.279Z,67.1429
2022-12-08T09:43:25.312Z,67.2857
2022-12-08T09:44:25.339Z,67.1429
2022-12-08T09:45:25.371Z,67
2022-12-08T09:46:25.462Z,67.0714
2022-12-08T09:47:28.319Z,67
2022-12-08T09:48:25.467Z,67
2022-12-08T09:49:25.493Z,67.1429
2022-12-08T09:50:25.524Z,66.9286
2022-12-08T09:51:25.558Z,66.8571
2022-12-08T09:52:25.597Z,66.8571
2022-12-08T09:53:29.365Z,66.7857
2022-12-08T09:54:25.696Z,66.7857
2022-12-08T09:55:25.681Z,66.8571
2022-12-08T09:56:25.705Z,66.8571
2022-12-08T09:57:25.771Z,67
2022-12-08T09:58:25.781Z,66.9286
2022-12-08T09:59:25.807Z,67
2022-12-08T10:00:25.840Z,67
2022-12-08T10:01:25.927Z,67
2022-12-08T10:02:25.917Z,66.9286
2022-12-08T10:03:25.929Z,67.0714
2022-12-08T10:04:25.957Z,67.1429
2022-12-08T10:05:26.109Z,67.2143
2022-12-08T10:06:26.035Z,67.1429
2022-12-08T10:07:26.090Z,67.1429
2022-12-08T10:08:26.162Z,67.1429
2022-12-08T10:09:26.114Z,67.0714
2022-12-08T10:10:26.150Z,67
2022-12-08T10:11:26.176Z,66.9286
2022-12-08T10:12:26.245Z,66.7857
2022-12-08T10:13:26.267Z,66.8571
2022-12-08T10:14:26.278Z,66.7857
2022-12-08T10:15:26.302Z,66.7857
2022-12-08T10:16:29.766Z,66.7143
2022-12-08T10:17:26.365Z,66.6429
2022-12-08T10:18:26.478Z,66.7143
2022-12-08T10:19:26.426Z,66.7857
2022-12-08T10:20:26.465Z,66.7143
2022-12-08T10:21:26.485Z,66.7143
2022-12-08T10:22:26.519Z,66.7857
2022-12-08T10:23:26.558Z,66.8571
2022-12-08T10:24:26.604Z,66.8571
2022-12-08T10:25:26.617Z,66.8571
2022-12-08T10:26:26.648Z,66.6429
2022-12-08T10:27:26.683Z,66.5714
2022-12-08T10:28:26.716Z,66.5714
2022-12-08T10:29:26.734Z,66.6429
2022-12-08T10:30:26.776Z,66.5714
2022-12-08T10:31:26.826Z,66.6429
2022-12-08T10:32:26.837Z,66.2857
2022-12-08T10:33:26.856Z,66.2143
2022-12-08T10:34:26.972Z,66.2143
2022-12-08T10:35:26.923Z,66.2143
2022-12-08T10:36:26.952Z,66.2143
2022-12-08T10:37:26.971Z,66.2857
2022-12-08T10:38:26.994Z,66.2857
2022-12-08T10:39:27.060Z,66.2857
2022-12-08T10:40:27.054Z,66.2857
2022-12-08T10:41:27.073Z,66.1429
2022-12-08T10:42:27.100Z,66.1429
2022-12-08T10:43:27.134Z,66.3571
2022-12-08T10:44:27.178Z,66.2857
2022-12-08T10:45:27.193Z,66.3571
2022-12-08T10:46:27.359Z,66.3571
2022-12-08T10:47:27.248Z,66.4286
2022-12-08T10:48:27.271Z,66.2857
2022-12-08T10:49:27.306Z,66.4286
2022-12-08T10:50:27.337Z,66.5
2022-12-08T10:51:27.360Z,66.4286
2022-12-08T10:52:27.390Z,66.4286
2022-12-08T10:53:27.416Z,66.4286
2022-12-08T10:54:27.454Z,66.5
2022-12-08T10:55:27.499Z,66.6429
2022-12-08T10:56:27.502Z,66.6429
2022-12-08T10:57:27.535Z,66.7143
2022-12-08T10:58:27.576Z,66.7857
2022-12-08T10:59:27.624Z,66.9286
2022-12-08T11:00:28.028Z,67
2022-12-08T11:01:27.708Z,67.0714
2022-12-08T11:02:27.832Z,67.2143
2022-12-08T11:03:27.725Z,67.2143
2022-12-08T11:04:27.764Z,67.2857
2022-12-08T11:05:27.801Z,67.2143
2022-12-08T11:06:27.835Z,67.0714
2022-12-08T11:07:27.864Z,67.0714
2022-12-08T11:08:27.963Z,67.0714
2022-12-08T11:09:27.931Z,67.0714
2022-12-08T11:10:27.996Z,67.1429
2022-12-08T11:11:29.608Z,67.0714
2022-12-08T11:12:28.015Z,67.0714
2022-12-08T11:13:28.061Z,67.1429
2022-12-08T11:14:28.083Z,67.1429
2022-12-08T11:15:28.131Z,67.1429
2022-12-08T11:16:28.264Z,67.2143
2022-12-08T11:17:28.195Z,67.2143
2022-12-08T11:18:28.221Z,67.2857
2022-12-08T11:19:28.243Z,67.3571
2022-12-08T11:20:28.279Z,67.2143
2022-12-08T11:21:28.321Z,67.2857
2022-12-08T11:22:28.352Z,67.2143
2022-12-08T11:23:28.378Z,67.2857
2022-12-08T11:24:31.304Z,67.4286
2022-12-08T11:25:28.453Z,67.4286
2022-12-08T11:26:28.483Z,67.4286
2022-12-08T11:27:28.521Z,67.5714
2022-12-08T11:28:28.546Z,67.5714
2022-12-08T11:29:28.586Z,67.5714
2022-12-08T11:30:28.625Z,67.5714
2022-12-08T11:31:28.783Z,67.5714
2022-12-08T11:32:28.684Z,67.6429
2022-12-08T11:33:28.717Z,67.7143
2022-12-08T11:34:28.760Z,67.7857
2022-12-08T11:35:28.776Z,67.7143
2022-12-08T11:36:28.801Z,67.7143
2022-12-08T11:37:34.462Z,67.7143
2022-12-08T11:38:28.867Z,67.7143
2022-12-08T11:39:28.888Z,67.7143
2022-12-08T11:40:28.922Z,67.8571
2022-12-08T11:41:28.944Z,67.7857
2022-12-08T11:42:28.995Z,67.7857
2022-12-08T11:43:29.034Z,67.8571
2022-12-08T11:44:29.052Z,67.7857
2022-12-08T11:45:29.076Z,67.7857
2022-12-08T11:46:29.128Z,67.7857
2022-12-08T11:47:29.164Z,67.7143
2022-12-08T11:48:29.169Z,67.6429
2022-12-08T11:49:29.215Z,67.6429
2022-12-08T11:50:29.240Z,67.6429
2022-12-08T11:51:29.270Z,67.6429
2022-12-08T11:52:29.338Z,67.7143
2022-12-08T11:53:29.333Z,67.6429
2022-12-08T11:54:29.367Z,67.6429
2022-12-08T11:55:31.222Z,67.6429
2022-12-08T11:56:29.413Z,67.7143
2022-12-08T11:57:29.452Z,67.7143
2022-12-08T11:58:29.535Z,67.7857
2022-12-08T11:59:29.503Z,67.7857
2022-12-08T12:00:29.535Z,67.7857
2022-12-08T12:01:29.573Z,67.7857
2022-12-08T12:02:29.743Z,67.7143
2022-12-08T12:03:29.913Z,67.6429
2022-12-08T12:04:29.668Z,67.6429
2022-12-08T12:05:47.546Z,67.6429
2022-12-08T12:06:53.187Z,67.7143
2022-12-08T12:07:29.754Z,67.6429
2022-12-08T12:08:29.832Z,67.5714
2022-12-08T12:09:29.820Z,67.5714
2022-12-08T12:10:29.857Z,67.4286
2022-12-08T12:11:29.884Z,67.4286
2022-12-08T12:12:33.662Z,67.5
2022-12-08T12:13:29.959Z,67.4286
2022-12-08T12:14:29.984Z,67.3571
2022-12-08T12:15:30.034Z,67.3571
2022-12-08T12:16:30.153Z,67.3571
2022-12-08T12:17:30.088Z,67.2143
2022-12-08T12:18:30.132Z,67.2143
2022-12-08T12:19:30.164Z,67.2857
2022-12-08T12:20:30.204Z,67.2857
2022-12-08T12:21:30.243Z,67.2857
2022-12-08T12:22:30.279Z,67.2857
2022-12-08T12:23:30.298Z,67.2857
2022-12-08T12:24:35.424Z,67.2857
2022-12-08T12:25:30.381Z,67.3571
2022-12-08T12:26:30.400Z,67.3571
2022-12-08T12:27:30.425Z,67.2857
2022-12-08T12:28:30.463Z,67.2143